Time;durP1;ratioP1;P1;durP2;ratioP2;P2;SDS_P1;SDS_P2;PMS_P1;PMS_P2;Temp;Humidity;BMP_temperature;BMP_pressure;BME280_temperature;BME280_humidity;BME280_pressure;Samples;Min_cycle;Max_cycle;Signal;HPM_P1;HPM_P2
2024/01/28 00:00:15;;;;;;;4.23;2.20;;;1.30;99.90;;;;;;4947239;28;20232;-80
2024/01/28 00:02:42;;;;;;;6.40;2.77;;;1.30;99.90;;;;;;4952875;28;20271;-81
2024/01/28 00:05:12;;;;;;;3.43;2.03;;;1.30;99.90;;;;;;4937299;29;20215;-81
2024/01/28 00:07:39;;;;;;;9.07;2.77;;;1.30;99.90;;;;;;4935080;29;20205;-80
2024/01/28 00:10:08;;;;;;;4.37;2.77;;;1.40;99.90;;;;;;4935416;28;20320;-81
2024/01/28 00:12:36;;;;;;;6.67;2.80;;;1.50;99.90;;;;;;4939871;28;20264;-81
2024/01/28 00:15:03;;;;;;;5.93;2.43;;;1.50;99.90;;;;;;4950736;28;20212;-75
2024/01/28 00:17:30;;;;;;;4.93;2.70;;;1.50;99.90;;;;;;4953120;28;20206;-79
2024/01/28 00:19:57;;;;;;;6.10;2.40;;;1.50;99.90;;;;;;4953750;28;20258;-79
2024/01/28 00:22:24;;;;;;;6.17;2.37;;;1.50;99.90;;;;;;4951446;28;20267;-76
2024/01/28 00:24:51;;;;;;;3.53;2.20;;;1.40;99.90;;;;;;4951057;28;20212;-80
2024/01/28 00:27:19;;;;;;;6.93;2.27;;;1.40;99.90;;;;;;4950619;28;20682;-79
2024/01/28 00:29:46;;;;;;;6.93;2.60;;;1.40;99.90;;;;;;4952111;28;20311;-81
2024/01/28 00:32:13;;;;;;;4.87;2.37;;;1.50;99.90;;;;;;4938137;29;20576;-77
2024/01/28 00:34:40;;;;;;;7.87;1.70;;;1.60;99.90;;;;;;4942443;28;20201;-75
2024/01/28 00:37:06;;;;;;;4.83;2.27;;;1.70;99.90;;;;;;4934890;29;20215;-75
2024/01/28 00:39:35;;;;;;;5.43;2.40;;;1.70;99.90;;;;;;4938095;29;20230;-77
2024/01/28 00:42:03;;;;;;;3.17;1.73;;;1.80;99.90;;;;;;4952424;28;20690;-76
2024/01/28 00:44:33;;;;;;;3.27;1.93;;;1.90;99.90;;;;;;4949165;28;20204;-81
2024/01/28 00:46:59;;;;;;;6.03;2.20;;;2.00;99.90;;;;;;4934879;29;20201;-82
2024/01/28 00:49:29;;;;;;;6.43;1.87;;;2.10;99.90;;;;;;4944894;28;20208;-81
2024/01/28 00:51:56;;;;;;;4.97;1.97;;;2.20;99.90;;;;;;4951725;28;20236;-77
2024/01/28 00:54:23;;;;;;;5.83;1.97;;;2.20;99.90;;;;;;4951713;28;20208;-75
2024/01/28 00:56:50;;;;;;;3.77;1.43;;;2.20;99.90;;;;;;4950291;28;20204;-80
2024/01/28 00:59:17;;;;;;;3.67;1.70;;;2.10;99.90;;;;;;4935731;28;20263;-80
2024/01/28 01:01:45;;;;;;;5.43;1.90;;;2.00;99.90;;;;;;4941287;28;20223;-78
2024/01/28 01:04:12;;;;;;;5.87;1.90;;;2.10;99.90;;;;;;4942981;28;20672;-76
2024/01/28 01:06:39;;;;;;;3.00;1.30;;;2.10;99.90;;;;;;4934428;28;20280;-80
2024/01/28 01:09:07;;;;;;;8.60;3.07;;;2.00;99.90;;;;;;4947614;28;20242;-79
2024/01/28 01:11:34;;;;;;;6.87;2.80;;;2.00;99.90;;;;;;4952382;28;20248;-82
2024/01/28 01:14:01;;;;;;;3.60;2.23;;;2.10;99.90;;;;;;4952272;28;20255;-81
2024/01/28 01:16:28;;;;;;;3.50;1.53;;;2.20;99.90;;;;;;4947167;28;20660;-75
2024/01/28 01:18:56;;;;;;;5.67;2.00;;;2.20;99.90;;;;;;4949155;28;20208;-81
2024/01/28 01:21:23;;;;;;;3.73;1.90;;;2.20;99.90;;;;;;4952446;28;20248;-76
2024/01/28 01:23:50;;;;;;;8.83;2.77;;;2.10;99.90;;;;;;4937844;28;20211;-78
2024/01/28 01:26:16;;;;;;;4.70;1.57;;;2.10;99.90;;;;;;4934165;28;20304;-79
2024/01/28 01:28:43;;;;;;;2.00;1.00;;;2.20;99.90;;;;;;4948783;28;20655;-77
2024/01/28 01:31:10;;;;;;;5.13;1.67;;;2.10;99.90;;;;;;4952445;28;20228;-80
2024/01/28 01:33:37;;;;;;;3.03;1.70;;;2.10;99.90;;;;;;4952131;28;20200;-78
2024/01/28 01:36:07;;;;;;;3.30;1.47;;;2.00;99.90;;;;;;4949575;28;20215;-78
2024/01/28 01:38:34;;;;;;;4.13;1.87;;;2.00;99.90;;;;;;4951352;28;20656;-78
2024/01/28 01:41:01;;;;;;;4.97;1.53;;;2.00;99.90;;;;;;4955354;28;20250;-76
2024/01/28 01:43:30;;;;;;;3.63;1.60;;;1.90;99.90;;;;;;4944361;28;20574;-75
2024/01/28 01:45:57;;;;;;;3.37;1.30;;;1.90;99.90;;;;;;4937566;29;20240;-78
2024/01/28 01:48:24;;;;;;;5.87;1.60;;;1.80;99.90;;;;;;4937554;29;20579;-79
2024/01/28 01:50:51;;;;;;;6.23;1.77;;;1.90;99.90;;;;;;4937925;29;20248;-76
2024/01/28 01:53:20;;;;;;;2.87;1.20;;;1.90;99.90;;;;;;4944515;28;20209;-76
2024/01/28 01:55:48;;;;;;;2.93;1.43;;;1.90;99.90;;;;;;4937896;29;20324;-79
2024/01/28 01:58:15;;;;;;;3.77;1.70;;;1.80;99.90;;;;;;4941964;29;20303;-80
2024/01/28 02:00:42;;;;;;;3.03;1.27;;;1.70;99.90;;;;;;4940868;29;20232;-79
2024/01/28 02:03:09;;;;;;;2.80;1.10;;;1.70;99.90;;;;;;4948021;28;20239;-81
2024/01/28 02:05:36;;;;;;;5.93;1.50;;;1.60;99.90;;;;;;4940225;29;20193;-82
2024/01/28 02:08:03;;;;;;;4.63;1.67;;;1.60;99.90;;;;;;4936873;29;20216;-81
2024/01/28 02:10:31;;;;;;;4.70;1.70;;;1.50;99.90;;;;;;4949047;28;20223;-80
2024/01/28 02:12:58;;;;;;;4.73;1.67;;;1.50;99.90;;;;;;4937622;29;20437;-81
2024/01/28 02:15:25;;;;;;;3.33;2.07;;;1.50;99.90;;;;;;4937237;29;20201;-80
2024/01/28 02:17:53;;;;;;;4.23;1.63;;;1.50;99.90;;;;;;4953387;29;20224;-78
2024/01/28 02:20:20;;;;;;;3.50;2.13;;;1.60;99.90;;;;;;4953179;28;20564;-82
2024/01/28 02:22:47;;;;;;;2.30;1.13;;;1.50;99.90;;;;;;4939096;28;20208;-76
2024/01/28 02:25:15;;;;;;;1.67;1.13;;;1.40;99.90;;;;;;4937520;29;20205;-82
2024/01/28 02:27:42;;;;;;;4.30;1.60;;;1.50;99.90;;;;;;4949705;28;20204;-78
2024/01/28 02:30:10;;;;;;;2.67;1.50;;;1.50;99.90;;;;;;4938589;28;20684;-80
2024/01/28 02:32:37;;;;;;;2.80;1.70;;;1.50;99.90;;;;;;4946070;28;20671;-82
2024/01/28 02:35:04;;;;;;;4.90;1.20;;;1.50;99.90;;;;;;4954028;28;20208;-80
2024/01/28 02:37:31;;;;;;;10.50;2.33;;;1.50;99.90;;;;;;4954382;28;20287;-81
2024/01/28 02:39:58;;;;;;;1.50;1.10;;;1.50;99.90;;;;;;4938546;28;20240;-80
2024/01/28 02:42:26;;;;;;;4.13;1.70;;;1.50;99.90;;;;;;4936472;28;20235;-80
2024/01/28 02:44:52;;;;;;;3.97;1.40;;;1.60;99.90;;;;;;4950220;28;20218;-75
2024/01/28 02:47:19;;;;;;;11.33;1.83;;;1.60;99.90;;;;;;4954110;28;20655;-81
2024/01/28 02:49:46;;;;;;;2.60;1.30;;;1.70;99.90;;;;;;4953562;28;20208;-82
2024/01/28 02:52:13;;;;;;;5.60;1.00;;;1.80;99.90;;;;;;4954195;28;20243;-78
2024/01/28 02:54:40;;;;;;;2.73;1.23;;;1.90;99.90;;;;;;4938823;28;20279;-82
2024/01/28 02:57:07;;;;;;;3.53;1.70;;;1.90;99.90;;;;;;4937742;29;20213;-83
2024/01/28 02:59:36;;;;;;;3.10;1.57;;;1.70;99.90;;;;;;4943481;28;20207;-82
2024/01/28 03:02:03;;;;;;;5.37;1.67;;;1.60;99.90;;;;;;4940603;28;20599;-78
2024/01/28 03:04:29;;;;;;;2.27;1.23;;;1.50;99.90;;;;;;4937946;28;20338;-80
2024/01/28 03:06:56;;;;;;;2.20;1.30;;;1.60;99.90;;;;;;4940491;29;20209;-81
2024/01/28 03:09:24;;;;;;;4.47;1.50;;;1.60;99.90;;;;;;4937538;29;20204;-80
2024/01/28 03:11:51;;;;;;;9.47;1.40;;;1.60;99.90;;;;;;4937188;29;20235;-81
2024/01/28 03:14:18;;;;;;;3.97;1.33;;;1.70;99.90;;;;;;4936407;29;20205;-82
2024/01/28 03:16:48;;;;;;;3.57;2.43;;;1.70;99.90;;;;;;4940177;28;20201;-77
2024/01/28 03:19:15;;;;;;;5.40;1.87;;;1.90;99.90;;;;;;4953207;28;20204;-80
2024/01/28 03:21:42;;;;;;;6.20;1.10;;;1.80;99.90;;;;;;4949137;28;20250;-75
2024/01/28 03:24:09;;;;;;;1.63;1.10;;;1.80;99.90;;;;;;4951245;28;20219;-80
2024/01/28 03:26:37;;;;;;;2.10;1.30;;;1.90;99.90;;;;;;4954057;28;20200;-78
2024/01/28 03:29:06;;;;;;;2.50;1.00;;;1.80;99.90;;;;;;4952856;28;20283;-81
2024/01/28 03:31:33;;;;;;;2.47;1.40;;;1.80;99.90;;;;;;4953237;28;20232;-78
2024/01/28 03:34:01;;;;;;;2.33;1.37;;;1.80;99.90;;;;;;4952655;28;20232;-79
2024/01/28 03:36:28;;;;;;;4.00;1.67;;;1.70;99.90;;;;;;4937316;28;20201;-76
2024/01/28 03:38:55;;;;;;;1.77;1.00;;;1.50;99.90;;;;;;4935448;29;20668;-80
2024/01/28 03:41:21;;;;;;;2.37;1.47;;;1.60;99.90;;;;;;4949900;28;20242;-80
2024/01/28 03:43:48;;;;;;;2.27;0.87;;;1.70;99.90;;;;;;4953605;28;20214;-78
2024/01/28 03:46:15;;;;;;;1.77;1.10;;;1.80;99.90;;;;;;4953161;28;20200;-77
2024/01/28 03:48:42;;;;;;;2.20;1.43;;;1.90;99.90;;;;;;4952222;28;20239;-79
2024/01/28 03:51:10;;;;;;;3.53;2.30;;;1.70;99.90;;;;;;4948269;28;20236;-79
2024/01/28 03:53:37;;;;;;;3.37;1.30;;;1.70;99.90;;;;;;4950889;28;20294;-80
2024/01/28 03:56:06;;;;;;;5.70;1.93;;;1.70;99.90;;;;;;4936416;29;20553;-81
2024/01/28 03:58:33;;;;;;;5.30;1.47;;;1.70;99.90;;;;;;4934915;29;20556;-74
2024/01/28 04:01:00;;;;;;;1.20;0.80;;;1.70;99.90;;;;;;4940877;28;20911;-82
2024/01/28 04:03:26;;;;;;;3.40;1.60;;;1.50;99.90;;;;;;4937000;29;20200;-76
2024/01/28 04:05:53;;;;;;;1.70;0.90;;;1.50;99.90;;;;;;4944279;28;20218;-81
2024/01/28 04:08:21;;;;;;;2.43;1.00;;;1.50;99.90;;;;;;4939524;28;20338;-78
2024/01/28 04:10:48;;;;;;;3.80;0.93;;;1.50;99.90;;;;;;4943034;23;20229;-72
2024/01/28 04:13:15;;;;;;;3.20;1.07;;;1.60;99.90;;;;;;4922509;29;20210;-72
2024/01/28 04:15:43;;;;;;;1.87;1.20;;;1.70;99.90;;;;;;4931185;29;20295;-71
2024/01/28 04:18:10;;;;;;;1.97;1.07;;;1.70;99.90;;;;;;4921618;29;20232;-75
2024/01/28 04:20:37;;;;;;;1.37;0.80;;;1.70;99.90;;;;;;4930374;29;20267;-72
2024/01/28 04:23:04;;;;;;;2.37;0.90;;;1.80;99.90;;;;;;4920114;29;20579;-72
2024/01/28 04:25:33;;;;;;;1.67;0.93;;;1.90;99.90;;;;;;4919492;29;20676;-71
2024/01/28 04:28:00;;;;;;;5.70;1.57;;;1.90;99.90;;;;;;4915824;29;20570;-72
2024/01/28 04:30:27;;;;;;;1.17;0.90;;;1.80;99.90;;;;;;4916834;29;20554;-73
2024/01/28 04:32:54;;;;;;;2.60;0.83;;;1.90;99.90;;;;;;4928069;29;20233;-73
2024/01/28 04:35:21;;;;;;;5.17;1.53;;;2.00;99.90;;;;;;4925166;29;20209;-72
2024/01/28 04:37:48;;;;;;;1.57;0.70;;;2.10;99.90;;;;;;4915776;29;20201;-71
2024/01/28 04:40:16;;;;;;;1.00;0.80;;;2.20;99.90;;;;;;4925292;29;20716;-70
2024/01/28 04:42:44;;;;;;;0.93;0.73;;;2.20;99.90;;;;;;4921607;29;20220;-73
2024/01/28 04:45:12;;;;;;;1.50;0.70;;;2.20;99.90;;;;;;4933360;29;20698;-73
2024/01/28 04:47:39;;;;;;;4.57;1.07;;;2.20;99.90;;;;;;4928877;29;20240;-71
2024/01/28 04:50:08;;;;;;;2.83;0.70;;;2.10;99.90;;;;;;4925948;29;20205;-71
2024/01/28 04:52:36;;;;;;;2.50;1.00;;;2.30;99.90;;;;;;4920652;29;20205;-71
2024/01/28 04:55:04;;;;;;;2.70;0.60;;;2.40;99.90;;;;;;4932918;29;20237;-71
2024/01/28 04:57:31;;;;;;;1.93;0.63;;;2.40;99.90;;;;;;4921109;29;20633;-72
2024/01/28 05:00:00;;;;;;;1.40;0.53;;;2.50;99.90;;;;;;4926180;29;20197;-74
2024/01/28 05:02:27;;;;;;;4.60;1.10;;;2.40;99.90;;;;;;4932223;29;20237;-70
2024/01/28 05:04:54;;;;;;;1.57;0.60;;;2.40;99.90;;;;;;4931985;29;20216;-71
2024/01/28 05:07:21;;;;;;;6.70;1.00;;;2.50;99.90;;;;;;4932949;29;20232;-71
2024/01/28 05:09:48;;;;;;;2.53;0.70;;;2.50;99.90;;;;;;4926318;29;20233;-73
2024/01/28 05:12:17;;;;;;;2.73;0.90;;;2.60;99.90;;;;;;4914912;29;20319;-74
2024/01/28 05:14:44;;;;;;;2.60;0.80;;;2.50;99.90;;;;;;4923659;29;20254;-71
2024/01/28 05:17:13;;;;;;;0.50;0.40;;;2.50;99.90;;;;;;4928914;29;20236;-73
2024/01/28 05:19:40;;;;;;;2.63;0.60;;;2.60;99.90;;;;;;4936526;29;20237;-73
2024/01/28 05:22:07;;;;;;;1.07;0.60;;;2.50;99.90;;;;;;4925681;29;20256;-72
2024/01/28 05:24:34;;;;;;;2.77;1.10;;;2.50;99.90;;;;;;4922401;29;20213;-72
2024/01/28 05:27:02;;;;;;;2.07;0.83;;;2.50;99.90;;;;;;4922548;29;20295;-71
2024/01/28 05:29:30;;;;;;;2.03;1.00;;;2.60;99.90;;;;;;4920479;29;20249;-72
2024/01/28 05:31:57;;;;;;;1.17;0.63;;;2.60;99.90;;;;;;4926034;29;20232;-73
2024/01/28 05:34:25;;;;;;;1.23;0.90;;;2.50;99.90;;;;;;4934020;29;20209;-73
2024/01/28 05:36:53;;;;;;;1.23;0.70;;;2.50;99.90;;;;;;4936657;29;20276;-73
2024/01/28 05:39:20;;;;;;;2.57;1.00;;;2.60;99.90;;;;;;4934426;29;20209;-73
2024/01/28 05:41:47;;;;;;;2.40;0.90;;;2.50;99.90;;;;;;4934649;29;20257;-71
2024/01/28 05:44:14;;;;;;;1.67;0.70;;;2.50;99.90;;;;;;4936872;29;20262;-74
2024/01/28 05:46:41;;;;;;;1.97;0.90;;;2.60;99.90;;;;;;4937081;29;20322;-74
2024/01/28 05:49:11;;;;;;;0.87;0.63;;;2.50;99.90;;;;;;4936386;29;20280;-72
2024/01/28 05:51:40;;;;;;;1.60;1.00;;;2.50;99.90;;;;;;4936226;29;20232;-74
2024/01/28 05:54:07;;;;;;;1.37;0.70;;;2.40;99.90;;;;;;4926521;29;20621;-74
2024/01/28 05:56:34;;;;;;;1.83;0.80;;;2.30;99.90;;;;;;4921942;29;20209;-73
2024/01/28 05:59:01;;;;;;;3.27;1.00;;;2.30;99.90;;;;;;4936809;29;20304;-74
2024/01/28 06:01:28;;;;;;;2.07;0.80;;;2.30;99.90;;;;;;4936650;28;20335;-72
2024/01/28 06:03:56;;;;;;;1.93;0.70;;;2.40;99.90;;;;;;4938251;29;20255;-76
2024/01/28 06:06:23;;;;;;;2.63;0.87;;;2.40;99.90;;;;;;4939705;29;20292;-75
2024/01/28 06:08:51;;;;;;;1.50;0.80;;;2.60;99.90;;;;;;4937114;29;20678;-71
2024/01/28 06:11:18;;;;;;;1.70;0.80;;;2.60;99.90;;;;;;4940047;29;20247;-74
2024/01/28 06:13:46;;;;;;;5.50;0.50;;;2.80;99.90;;;;;;4940004;29;20354;-74
2024/01/28 06:16:13;;;;;;;2.30;0.70;;;2.60;99.90;;;;;;4938525;29;20303;-74
2024/01/28 06:18:43;;;;;;;5.50;1.97;;;2.50;99.90;;;;;;4926425;29;20209;-74
2024/01/28 06:21:11;;;;;;;1.57;0.70;;;2.30;99.90;;;;;;4938307;29;20245;-74
2024/01/28 06:23:38;;;;;;;1.73;0.60;;;2.40;99.90;;;;;;4937293;29;20320;-73
2024/01/28 06:26:07;;;;;;;1.27;0.90;;;2.30;99.90;;;;;;4937391;29;20208;-74
2024/01/28 06:28:34;;;;;;;2.10;0.77;;;2.30;99.90;;;;;;4938008;29;20233;-74
2024/01/28 06:31:03;;;;;;;1.30;0.80;;;2.40;99.90;;;;;;4936074;29;20249;-72
2024/01/28 06:33:30;;;;;;;2.00;0.63;;;2.30;99.90;;;;;;4932761;29;20205;-75
2024/01/28 06:35:57;;;;;;;2.47;0.73;;;2.30;99.90;;;;;;4936973;29;20219;-73
2024/01/28 06:38:25;;;;;;;1.67;0.73;;;2.30;99.90;;;;;;4921389;29;20260;-74
2024/01/28 06:40:52;;;;;;;1.97;0.97;;;2.40;99.90;;;;;;4926311;29;20283;-74
2024/01/28 06:43:22;;;;;;;2.93;1.33;;;2.40;99.90;;;;;;4934962;29;20243;-74
2024/01/28 06:45:49;;;;;;;1.20;0.60;;;2.60;99.90;;;;;;4935438;29;20205;-74
2024/01/28 06:48:16;;;;;;;6.97;1.10;;;2.60;99.90;;;;;;4921669;29;20206;-72
2024/01/28 06:50:43;;;;;;;3.30;0.80;;;2.50;99.90;;;;;;4932224;29;20335;-74
2024/01/28 06:53:10;;;;;;;1.73;0.90;;;2.40;99.90;;;;;;4922542;29;20205;-74
2024/01/28 06:55:38;;;;;;;1.60;0.60;;;2.30;99.90;;;;;;4930357;29;20206;-74
2024/01/28 06:58:05;;;;;;;1.37;0.80;;;2.40;99.90;;;;;;4925500;29;20292;-74
2024/01/28 07:00:34;;;;;;;1.57;1.47;;;2.60;99.90;;;;;;4930246;29;20312;-74
2024/01/28 07:03:01;;;;;;;1.53;1.00;;;2.50;99.90;;;;;;4927024;29;20279;-75
2024/01/28 07:05:28;;;;;;;2.50;0.87;;;2.40;99.90;;;;;;4926464;29;20209;-74
2024/01/28 07:07:56;;;;;;;2.03;0.73;;;2.40;99.90;;;;;;4918368;29;20206;-74
2024/01/28 07:10:23;;;;;;;2.50;0.60;;;2.30;99.90;;;;;;4924365;29;20217;-74
2024/01/28 07:12:51;;;;;;;1.80;1.07;;;2.10;99.90;;;;;;4923732;29;20544;-75
2024/01/28 07:15:18;;;;;;;4.03;0.90;;;2.00;99.90;;;;;;4930268;29;20272;-74
2024/01/28 07:17:46;;;;;;;2.43;0.80;;;1.90;99.90;;;;;;4928164;29;20256;-75
2024/01/28 07:20:14;;;;;;;2.87;1.10;;;1.90;99.90;;;;;;4928753;29;20209;-72
2024/01/28 07:22:41;;;;;;;3.53;0.93;;;1.90;99.90;;;;;;4933414;29;20232;-73
2024/01/28 07:25:09;;;;;;;1.20;0.83;;;1.90;99.90;;;;;;4923837;29;20218;-72
2024/01/28 07:27:36;;;;;;;0.80;0.60;;;1.90;99.90;;;;;;4921549;29;20216;-74
2024/01/28 07:30:04;;;;;;;2.13;1.00;;;1.80;99.90;;;;;;4925246;29;20202;-73
2024/01/28 07:32:31;;;;;;;1.50;1.00;;;1.90;99.90;;;;;;4921956;29;20315;-71
2024/01/28 07:34:59;;;;;;;1.77;0.70;;;1.80;99.90;;;;;;4928204;29;20625;-71
2024/01/28 07:37:26;;;;;;;1.17;0.80;;;1.90;99.90;;;;;;4916323;29;20205;-72
2024/01/28 07:39:53;;;;;;;2.00;0.90;;;2.00;99.90;;;;;;4926313;29;20236;-73
2024/01/28 07:42:21;;;;;;;3.13;1.50;;;2.10;99.90;;;;;;4922836;29;20257;-72
2024/01/28 07:44:48;;;;;;;1.53;0.73;;;2.10;99.90;;;;;;4919181;29;20651;-73
2024/01/28 07:47:15;;;;;;;7.30;1.00;;;2.20;99.90;;;;;;4922824;29;20205;-72
2024/01/28 07:49:42;;;;;;;1.27;0.90;;;2.20;99.90;;;;;;4931292;29;20265;-71
2024/01/28 07:52:11;;;;;;;1.53;0.73;;;2.20;99.90;;;;;;4928268;29;20366;-71
2024/01/28 07:54:38;;;;;;;3.97;1.50;;;2.50;99.90;;;;;;4925209;29;20296;-72
2024/01/28 07:57:06;;;;;;;1.70;0.90;;;2.80;99.90;;;;;;4924644;29;20566;-72
2024/01/28 07:59:33;;;;;;;3.63;0.90;;;3.20;99.90;;;;;;4928205;29;20296;-73
2024/01/28 08:02:00;;;;;;;2.70;0.90;;;3.30;99.90;;;;;;4926413;29;20276;-73
2024/01/28 08:04:28;;;;;;;1.40;0.83;;;3.50;99.90;;;;;;4927855;29;20208;-75
2024/01/28 08:06:55;;;;;;;2.23;1.50;;;3.70;99.90;;;;;;4925014;29;20299;-75
2024/01/28 08:09:24;;;;;;;1.77;1.00;;;3.90;99.90;;;;;;4923477;29;20213;-71
2024/01/28 08:11:51;;;;;;;1.60;0.87;;;4.20;99.90;;;;;;4927512;29;20604;-71
2024/01/28 08:14:19;;;;;;;3.83;1.00;;;4.70;99.90;;;;;;4930002;29;20672;-71
2024/01/28 08:16:46;;;;;;;5.33;1.40;;;5.20;99.90;;;;;;4931060;29;20220;-73
2024/01/28 08:19:13;;;;;;;1.73;1.10;;;5.60;99.90;;;;;;4919034;29;20201;-75
2024/01/28 08:21:40;;;;;;;3.40;1.30;;;6.00;99.90;;;;;;4930022;29;20713;-73
2024/01/28 08:24:08;;;;;;;3.37;1.50;;;6.40;99.90;;;;;;4922787;29;20236;-75
2024/01/28 08:26:36;;;;;;;3.10;1.83;;;6.60;99.90;;;;;;4932969;29;20220;-72
2024/01/28 08:29:03;;;;;;;2.67;1.20;;;6.70;99.90;;;;;;4926262;29;20202;-76
2024/01/28 08:31:30;;;;;;;1.83;1.23;;;6.80;99.90;;;;;;4923980;29;20323;-73
2024/01/28 08:33:58;;;;;;;2.80;1.10;;;7.00;99.90;;;;;;4934399;29;20557;-74
2024/01/28 08:36:25;;;;;;;2.00;1.30;;;7.20;99.90;;;;;;4932762;29;20217;-74
2024/01/28 08:38:52;;;;;;;2.87;1.03;;;7.30;99.90;;;;;;4934773;29;20223;-73
2024/01/28 08:41:19;;;;;;;1.83;0.87;;;7.40;99.90;;;;;;4932102;29;20228;-74
2024/01/28 08:43:49;;;;;;;2.80;1.50;;;7.20;99.90;;;;;;4923327;29;20208;-75
2024/01/28 08:46:16;;;;;;;1.67;0.70;;;7.20;99.90;;;;;;4935941;29;20656;-71
2024/01/28 08:48:43;;;;;;;3.50;0.93;;;7.20;99.90;;;;;;4936757;29;20232;-76
2024/01/28 08:51:10;;;;;;;3.13;0.80;;;7.20;99.90;;;;;;4932382;29;20232;-73
2024/01/28 08:53:37;;;;;;;2.87;1.03;;;7.10;99.90;;;;;;4939943;29;20217;-73
2024/01/28 08:56:05;;;;;;;3.10;1.03;;;6.80;99.90;;;;;;4939708;29;20212;-74
2024/01/28 08:58:32;;;;;;;2.17;0.77;;;6.80;99.90;;;;;;4938434;29;20219;-74
2024/01/28 09:01:01;;;;;;;2.27;0.90;;;6.90;99.90;;;;;;4933272;29;20228;-73
2024/01/28 09:03:28;;;;;;;1.87;0.70;;;6.90;99.90;;;;;;4936132;29;20319;-73
2024/01/28 09:05:55;;;;;;;2.60;0.67;;;6.90;99.90;;;;;;4930548;29;20743;-73
2024/01/28 09:08:22;;;;;;;2.67;1.40;;;6.90;99.90;;;;;;4935052;29;20225;-73
2024/01/28 09:10:49;;;;;;;1.80;0.80;;;6.90;99.90;;;;;;4934430;29;20596;-73
2024/01/28 09:13:16;;;;;;;2.80;1.00;;;6.80;99.90;;;;;;4937336;29;20660;-74
2024/01/28 09:15:43;;;;;;;2.40;1.07;;;6.70;99.90;;;;;;4938866;29;20215;-73
2024/01/28 09:18:12;;;;;;;1.93;0.80;;;6.70;99.90;;;;;;4937316;29;20212;-73
2024/01/28 09:20:39;;;;;;;1.70;0.80;;;6.80;99.90;;;;;;4936485;29;20231;-72
2024/01/28 09:23:06;;;;;;;3.17;0.87;;;6.80;99.90;;;;;;4937365;29;20335;-71
2024/01/28 09:25:33;;;;;;;2.00;0.87;;;6.90;99.90;;;;;;4937285;29;20217;-73
2024/01/28 09:28:00;;;;;;;3.57;1.00;;;7.10;99.90;;;;;;4931349;29;20633;-73
2024/01/28 09:30:27;;;;;;;1.33;0.67;;;7.20;99.90;;;;;;4936563;29;20201;-74
2024/01/28 09:32:54;;;;;;;3.50;0.80;;;7.10;99.90;;;;;;4933286;29;20301;-74
2024/01/28 09:35:25;;;;;;;1.67;0.90;;;7.00;99.90;;;;;;4940482;29;20209;-74
2024/01/28 09:37:54;;;;;;;4.27;0.70;;;6.90;99.90;;;;;;4934484;29;20867;-72
2024/01/28 09:40:21;;;;;;;2.43;0.60;;;6.80;99.90;;;;;;4933225;29;20214;-73
2024/01/28 09:42:55;;;;;;;2.70;1.53;;;6.70;99.90;;;;;;4934682;29;20667;-74
2024/01/28 09:45:23;;;;;;;5.03;1.03;;;6.50;99.90;;;;;;4936874;29;20542;-75
2024/01/28 09:47:51;;;;;;;4.43;1.07;;;6.50;99.90;;;;;;4930616;29;20572;-74
2024/01/28 09:50:18;;;;;;;1.43;0.70;;;6.60;99.90;;;;;;4931814;29;20201;-73
2024/01/28 09:52:47;;;;;;;3.17;1.13;;;6.60;99.90;;;;;;4932553;29;20212;-73
2024/01/28 09:55:14;;;;;;;2.80;0.80;;;6.80;99.90;;;;;;4938631;29;20217;-74
2024/01/28 09:57:41;;;;;;;1.63;0.80;;;7.00;99.90;;;;;;4939594;29;20205;-73
2024/01/28 10:00:09;;;;;;;1.77;0.80;;;7.20;99.90;;;;;;4917722;29;20640;-74
2024/01/28 10:02:38;;;;;;;3.00;1.00;;;7.30;99.90;;;;;;4918663;29;20300;-73
2024/01/28 10:05:10;;;;;;;3.23;1.03;;;7.30;99.90;;;;;;4918567;29;20205;-73
2024/01/28 10:07:42;;;;;;;4.17;1.50;;;7.30;99.90;;;;;;4918935;29;20610;-73
2024/01/28 10:10:12;;;;;;;2.17;1.00;;;7.30;99.90;;;;;;4935298;23;20229;-80
2024/01/28 10:12:39;;;;;;;1.30;0.60;;;7.20;99.90;;;;;;4921726;29;20221;-81
2024/01/28 10:15:16;;;;;;;1.40;0.97;;;7.30;99.90;;;;;;4923077;29;20208;-80
2024/01/28 10:17:47;;;;;;;2.30;0.77;;;7.30;99.90;;;;;;4929686;29;20213;-81
2024/01/28 10:20:15;;;;;;;2.83;0.90;;;7.30;99.90;;;;;;4901686;29;20210;-82
2024/01/28 10:22:42;;;;;;;1.50;0.70;;;7.50;99.90;;;;;;4902377;29;20773;-88
2024/01/28 10:25:12;;;;;;;1.93;0.90;;;7.60;99.90;;;;;;4901726;29;20259;-86
2024/01/28 10:27:40;;;;;;;2.37;0.70;;;7.90;99.90;;;;;;4917855;29;20634;-86
2024/01/28 10:30:13;;;;;;;1.63;0.70;;;7.90;99.90;;;;;;4913122;29;20214;-74
2024/01/28 10:32:41;;;;;;;1.97;1.00;;;8.10;99.90;;;;;;4917275;29;20210;-75
2024/01/28 10:35:09;;;;;;;1.73;0.90;;;8.10;99.90;;;;;;4913921;29;20642;-77
2024/01/28 10:37:37;;;;;;;1.43;0.73;;;8.20;99.90;;;;;;4916337;29;20269;-76
2024/01/28 10:40:07;;;;;;;1.50;0.60;;;8.30;99.90;;;;;;4909744;29;20725;-74
2024/01/28 10:42:38;;;;;;;1.13;0.80;;;8.40;99.90;;;;;;4916585;29;20241;-73
2024/01/28 10:45:08;;;;;;;1.40;0.63;;;8.40;99.90;;;;;;4899817;29;20215;-75
2024/01/28 10:47:38;;;;;;;1.20;0.67;;;8.50;99.90;;;;;;4895412;29;20676;-74
2024/01/28 10:50:08;;;;;;;1.97;0.80;;;8.60;99.90;;;;;;4910988;29;20214;-83
2024/01/28 10:52:38;;;;;;;1.90;1.00;;;8.70;99.90;;;;;;4916681;29;20712;-75
2024/01/28 10:55:06;;;;;;;2.20;0.80;;;8.80;99.90;;;;;;4929066;29;20731;-84
2024/01/28 10:57:35;;;;;;;1.43;0.80;;;8.80;99.90;;;;;;4935857;29;20209;-81
2024/01/28 11:00:03;;;;;;;1.83;0.80;;;8.90;99.90;;;;;;4899341;29;20210;-80
2024/01/28 11:02:31;;;;;;;1.10;0.60;;;9.10;99.90;;;;;;4898482;29;20238;-81
2024/01/28 11:04:58;;;;;;;2.17;0.90;;;9.30;99.90;;;;;;4913905;29;20257;-79
2024/01/28 11:07:26;;;;;;;0.77;0.63;;;9.30;99.90;;;;;;4918428;29;20577;-81
2024/01/28 11:09:53;;;;;;;1.00;0.50;;;9.30;99.90;;;;;;4904715;29;20214;-79
2024/01/28 11:12:20;;;;;;;2.40;0.60;;;9.30;99.90;;;;;;4904188;29;20262;-81
2024/01/28 11:14:52;;;;;;;2.37;0.70;;;9.30;99.90;;;;;;4905277;29;20634;-81
2024/01/28 11:17:22;;;;;;;3.27;1.07;;;9.30;99.90;;;;;;4904550;29;20218;-81
2024/01/28 11:19:49;;;;;;;1.70;0.90;;;9.50;99.90;;;;;;4935748;29;20213;-77
2024/01/28 11:22:16;;;;;;;1.40;0.57;;;9.50;99.90;;;;;;4949349;29;20240;-80
2024/01/28 11:24:53;;;;;;;1.53;0.60;;;9.60;99.90;;;;;;4918645;29;20216;-80
2024/01/28 11:27:20;;;;;;;1.57;0.50;;;9.50;99.90;;;;;;4916788;29;20293;-79
2024/01/28 11:29:48;;;;;;;0.70;0.47;;;9.60;99.90;;;;;;4905526;29;20310;-79
2024/01/28 11:32:16;;;;;;;2.43;0.77;;;9.60;99.90;;;;;;4898318;29;20317;-77
2024/01/28 11:34:45;;;;;;;1.50;0.70;;;9.70;99.90;;;;;;4909721;29;20264;-81
2024/01/28 11:37:13;;;;;;;2.80;0.40;;;9.90;99.90;;;;;;4917760;29;20237;-80
2024/01/28 11:39:45;;;;;;;2.87;0.60;;;9.90;99.90;;;;;;4906842;29;20293;-80
2024/01/28 11:42:12;;;;;;;2.57;0.70;;;10.00;99.90;;;;;;4898537;29;20231;-77
2024/01/28 11:44:41;;;;;;;0.70;0.60;;;10.00;99.90;;;;;;4898538;29;20217;-82
2024/01/28 11:47:12;;;;;;;1.37;0.67;;;10.20;99.90;;;;;;4898367;29;20210;-77
2024/01/28 11:49:40;;;;;;;1.47;0.60;;;10.20;99.90;;;;;;4903971;29;20206;-79
2024/01/28 11:52:08;;;;;;;1.17;0.70;;;10.30;99.90;;;;;;4898172;29;20298;-82
2024/01/28 11:54:36;;;;;;;3.03;0.70;;;10.30;99.90;;;;;;4898113;29;20685;-76
2024/01/28 11:57:03;;;;;;;3.30;0.80;;;10.30;99.90;;;;;;4897769;29;20269;-78
2024/01/28 11:59:33;;;;;;;2.27;0.87;;;10.30;99.90;;;;;;4898152;29;20206;-82
2024/01/28 12:02:00;;;;;;;3.27;0.90;;;10.40;99.90;;;;;;4909244;29;20705;-81
2024/01/28 12:04:29;;;;;;;1.30;0.80;;;10.50;99.90;;;;;;4916637;29;20724;-82
2024/01/28 12:06:56;;;;;;;2.77;1.00;;;10.50;99.90;;;;;;4916576;29;20210;-83
2024/01/28 12:09:23;;;;;;;2.43;0.80;;;10.60;99.90;;;;;;4916532;29;20296;-79
2024/01/28 12:11:51;;;;;;;1.17;0.67;;;10.70;99.90;;;;;;4916917;29;20263;-79
2024/01/28 12:14:18;;;;;;;1.67;0.77;;;10.60;99.90;;;;;;4909425;29;20230;-81
2024/01/28 12:16:45;;;;;;;2.50;0.60;;;10.70;99.90;;;;;;4906758;29;20233;-81
2024/01/28 12:19:13;;;;;;;3.40;1.13;;;10.70;99.90;;;;;;4899746;29;20210;-78
2024/01/28 12:21:42;;;;;;;2.10;0.97;;;10.80;99.90;;;;;;4896803;29;20242;-81
2024/01/28 12:24:10;;;;;;;4.07;0.93;;;10.90;99.90;;;;;;4896981;29;20248;-81
2024/01/28 12:26:37;;;;;;;2.77;0.90;;;10.90;99.90;;;;;;4905605;29;20233;-83
2024/01/28 12:29:04;;;;;;;2.23;0.90;;;11.10;99.90;;;;;;4916060;29;20225;-79
2024/01/28 12:31:31;;;;;;;4.70;0.93;;;11.20;99.90;;;;;;4910728;29;20329;-82
2024/01/28 12:33:58;;;;;;;2.17;0.90;;;11.30;99.90;;;;;;4900904;29;20211;-82
2024/01/28 12:36:25;;;;;;;1.30;0.90;;;11.40;99.90;;;;;;4901148;29;20211;-80
2024/01/28 12:38:54;;;;;;;1.83;0.90;;;11.40;99.90;;;;;;4898518;29;20214;-82
2024/01/28 12:41:20;;;;;;;2.27;0.70;;;11.40;99.90;;;;;;4897889;29;20589;-82
2024/01/28 12:43:48;;;;;;;1.20;0.70;;;11.60;99.90;;;;;;4898029;29;20780;-84
2024/01/28 12:46:17;;;;;;;1.00;0.70;;;11.50;99.90;;;;;;4898376;29;20638;-80
2024/01/28 12:48:44;;;;;;;2.10;0.70;;;11.60;99.90;;;;;;4897965;29;20225;-76
2024/01/28 12:51:10;;;;;;;1.17;0.70;;;11.60;99.90;;;;;;4897518;29;20713;-80
2024/01/28 12:53:37;;;;;;;0.97;0.83;;;11.80;99.90;;;;;;4897693;29;20210;-83
2024/01/28 12:56:07;;;;;;;3.20;0.80;;;11.80;99.90;;;;;;4897803;29;20245;-82